sensor_id;sensor_type;location;lat;lon;timestamp;temperature;humidity
59148;DHT22;44930;52.878;6.168;2022-08-03T00:01:04;19.40;99.90
59148;DHT22;44930;52.878;6.168;2022-08-03T00:03:30;19.20;99.90
59148;DHT22;44930;52.878;6.168;2022-08-03T00:05:55;19.10;99.90
59148;DHT22;44930;52.878;6.168;2022-08-03T00:08:21;18.80;99.90
59148;DHT22;44930;52.878;6.168;2022-08-03T00:10:47;19.00;99.90
59148;DHT22;44930;52.878;6.168;2022-08-03T00:13:12;19.30;99.90
59148;DHT22;44930;52.878;6.168;2022-08-03T00:15:41;19.10;99.90
59148;DHT22;44930;52.878;6.168;2022-08-03T00:18:07;19.10;99.90
59148;DHT22;44930;52.878;6.168;2022-08-03T00:20:33;19.10;99.90
59148;DHT22;44930;52.878;6.168;2022-08-03T00:22:59;19.10;99.90
59148;DHT22;44930;52.878;6.168;2022-08-03T00:25:24;18.60;99.90
59148;DHT22;44930;52.878;6.168;2022-08-03T00:27:50;19.00;99.90
59148;DHT22;44930;52.878;6.168;2022-08-03T00:30:16;18.70;99.90
59148;DHT22;44930;52.878;6.168;2022-08-03T00:32:41;19.00;99.90
59148;DHT22;44930;52.878;6.168;2022-08-03T00:35:07;19.00;99.90
59148;DHT22;44930;52.878;6.168;2022-08-03T00:37:33;18.90;99.90
59148;DHT22;44930;52.878;6.168;2022-08-03T00:39:58;18.70;99.90
59148;DHT22;44930;52.878;6.168;2022-08-03T00:42:24;19.10;99.90
59148;DHT22;44930;52.878;6.168;2022-08-03T00:44:50;18.70;99.90
59148;DHT22;44930;52.878;6.168;2022-08-03T00:47:15;19.00;99.90
59148;DHT22;44930;52.878;6.168;2022-08-03T00:49:41;19.00;99.90
59148;DHT22;44930;52.878;6.168;2022-08-03T00:52:10;19.10;99.90
59148;DHT22;44930;52.878;6.168;2022-08-03T00:54:37;18.90;99.90
59148;DHT22;44930;52.878;6.168;2022-08-03T00:57:03;18.80;99.90
59148;DHT22;44930;52.878;6.168;2022-08-03T00:59:29;18.70;99.90
59148;DHT22;44930;52.878;6.168;2022-08-03T01:01:55;19.10;99.90
59148;DHT22;44930;52.878;6.168;2022-08-03T01:04:21;18.50;99.90
59148;DHT22;44930;52.878;6.168;2022-08-03T01:07:09;18.60;99.90
59148;DHT22;44930;52.878;6.168;2022-08-03T01:12:47;18.60;99.90
59148;DHT22;44930;52.878;6.168;2022-08-03T01:15:32;18.40;99.90
59148;DHT22;44930;52.878;6.168;2022-08-03T01:18:24;18.70;99.90
59148;DHT22;44930;52.878;6.168;2022-08-03T01:20:54;18.70;99.90
59148;DHT22;44930;52.878;6.168;2022-08-03T01:31:43;18.60;99.90
59148;DHT22;44930;52.878;6.168;2022-08-03T01:34:15;18.80;99.90
59148;DHT22;44930;52.878;6.168;2022-08-03T01:36:51;18.30;99.90
59148;DHT22;44930;52.878;6.168;2022-08-03T01:39:20;19.10;99.90
59148;DHT22;44930;52.878;6.168;2022-08-03T01:41:49;18.80;99.90
59148;DHT22;44930;52.878;6.168;2022-08-03T01:44:19;18.70;99.90
59148;DHT22;44930;52.878;6.168;2022-08-03T01:46:47;18.70;99.90
59148;DHT22;44930;52.878;6.168;2022-08-03T01:49:16;18.40;99.90
59148;DHT22;44930;52.878;6.168;2022-08-03T01:51:44;18.80;99.90
59148;DHT22;44930;52.878;6.168;2022-08-03T01:54:12;18.80;99.90
59148;DHT22;44930;52.878;6.168;2022-08-03T01:56:39;18.50;99.90
59148;DHT22;44930;52.878;6.168;2022-08-03T01:59:06;18.50;99.90
59148;DHT22;44930;52.878;6.168;2022-08-03T02:01:34;18.90;99.90
59148;DHT22;44930;52.878;6.168;2022-08-03T02:04:01;18.70;99.90
59148;DHT22;44930;52.878;6.168;2022-08-03T02:06:30;18.40;99.90
59148;DHT22;44930;52.878;6.168;2022-08-03T02:08:58;18.40;99.90
59148;DHT22;44930;52.878;6.168;2022-08-03T02:11:25;18.40;99.90
59148;DHT22;44930;52.878;6.168;2022-08-03T02:13:52;18.60;99.90
59148;DHT22;44930;52.878;6.168;2022-08-03T02:16:21;18.30;99.90
59148;DHT22;44930;52.878;6.168;2022-08-03T02:18:47;18.40;99.90
59148;DHT22;44930;52.878;6.168;2022-08-03T02:21:13;18.70;99.90
59148;DHT22;44930;52.878;6.168;2022-08-03T02:23:40;18.20;99.90
59148;DHT22;44930;52.878;6.168;2022-08-03T02:26:09;18.30;99.90
59148;DHT22;44930;52.878;6.168;2022-08-03T02:28:40;18.60;99.90
59148;DHT22;44930;52.878;6.168;2022-08-03T02:31:14;18.10;99.90
59148;DHT22;44930;52.878;6.168;2022-08-03T02:33:47;18.50;99.90
59148;DHT22;44930;52.878;6.168;2022-08-03T02:36:13;18.50;99.90
59148;DHT22;44930;52.878;6.168;2022-08-03T02:38:41;18.40;99.90
59148;DHT22;44930;52.878;6.168;2022-08-03T02:41:14;18.80;99.90
59148;DHT22;44930;52.878;6.168;2022-08-03T02:43:42;18.50;99.90
59148;DHT22;44930;52.878;6.168;2022-08-03T02:46:12;18.40;99.90
59148;DHT22;44930;52.878;6.168;2022-08-03T02:48:40;18.10;99.90
59148;DHT22;44930;52.878;6.168;2022-08-03T02:51:08;19.10;99.90
59148;DHT22;44930;52.878;6.168;2022-08-03T02:53:34;18.10;99.90
59148;DHT22;44930;52.878;6.168;2022-08-03T02:56:01;18.60;99.90
59148;DHT22;44930;52.878;6.168;2022-08-03T02:58:28;18.30;99.90
59148;DHT22;44930;52.878;6.168;2022-08-03T03:00:55;17.70;99.90
59148;DHT22;44930;52.878;6.168;2022-08-03T03:03:22;18.30;99.90
59148;DHT22;44930;52.878;6.168;2022-08-03T03:05:49;18.20;99.90
59148;DHT22;44930;52.878;6.168;2022-08-03T03:08:17;18.00;99.90
59148;DHT22;44930;52.878;6.168;2022-08-03T03:10:43;18.40;99.90
59148;DHT22;44930;52.878;6.168;2022-08-03T03:13:10;18.00;99.90
59148;DHT22;44930;52.878;6.168;2022-08-03T03:15:37;18.00;99.90
59148;DHT22;44930;52.878;6.168;2022-08-03T03:18:04;18.00;99.90
59148;DHT22;44930;52.878;6.168;2022-08-03T03:20:32;18.30;99.90
59148;DHT22;44930;52.878;6.168;2022-08-03T03:23:00;18.50;99.90
59148;DHT22;44930;52.878;6.168;2022-08-03T03:25:35;18.00;99.90
59148;DHT22;44930;52.878;6.168;2022-08-03T03:28:02;17.90;99.90
59148;DHT22;44930;52.878;6.168;2022-08-03T03:30:28;18.60;99.90
59148;DHT22;44930;52.878;6.168;2022-08-03T03:32:54;18.60;99.90
59148;DHT22;44930;52.878;6.168;2022-08-03T03:35:21;17.80;99.90
59148;DHT22;44930;52.878;6.168;2022-08-03T03:37:46;18.10;99.90
59148;DHT22;44930;52.878;6.168;2022-08-03T03:40:13;18.10;99.90
59148;DHT22;44930;52.878;6.168;2022-08-03T03:42:38;18.10;99.90
59148;DHT22;44930;52.878;6.168;2022-08-03T03:45:08;17.90;99.90
59148;DHT22;44930;52.878;6.168;2022-08-03T03:47:34;18.10;99.90
59148;DHT22;44930;52.878;6.168;2022-08-03T03:50:02;17.70;99.90
59148;DHT22;44930;52.878;6.168;2022-08-03T03:52:28;17.80;99.90
59148;DHT22;44930;52.878;6.168;2022-08-03T03:54:53;18.70;99.90
59148;DHT22;44930;52.878;6.168;2022-08-03T03:57:19;18.40;99.90
59148;DHT22;44930;52.878;6.168;2022-08-03T03:59:45;18.10;99.90
59148;DHT22;44930;52.878;6.168;2022-08-03T04:02:11;17.70;99.90
59148;DHT22;44930;52.878;6.168;2022-08-03T04:04:37;17.80;99.90
59148;DHT22;44930;52.878;6.168;2022-08-03T04:07:26;18.20;99.90
59148;DHT22;44930;52.878;6.168;2022-08-03T04:10:20;17.70;99.90
59148;DHT22;44930;52.878;6.168;2022-08-03T04:13:08;18.00;99.90
59148;DHT22;44930;52.878;6.168;2022-08-03T04:15:39;18.00;99.90
59148;DHT22;44930;52.878;6.168;2022-08-03T04:18:07;17.40;99.90
59148;DHT22;44930;52.878;6.168;2022-08-03T04:20:34;18.50;99.90
59148;DHT22;44930;52.878;6.168;2022-08-03T04:23:02;18.00;99.90
59148;DHT22;44930;52.878;6.168;2022-08-03T04:25:31;17.90;99.90
59148;DHT22;44930;52.878;6.168;2022-08-03T04:28:01;18.30;99.90
59148;DHT22;44930;52.878;6.168;2022-08-03T04:30:27;17.50;99.90
59148;DHT22;44930;52.878;6.168;2022-08-03T04:32:55;17.60;99.90
59148;DHT22;44930;52.878;6.168;2022-08-03T04:35:23;17.80;99.90
59148;DHT22;44930;52.878;6.168;2022-08-03T04:37:51;18.20;99.90
59148;DHT22;44930;52.878;6.168;2022-08-03T04:40:29;18.00;99.90
59148;DHT22;44930;52.878;6.168;2022-08-03T04:42:57;17.90;99.90
59148;DHT22;44930;52.878;6.168;2022-08-03T04:45:24;18.00;99.90
59148;DHT22;44930;52.878;6.168;2022-08-03T04:47:51;17.90;99.90
59148;DHT22;44930;52.878;6.168;2022-08-03T04:50:18;18.30;99.90
59148;DHT22;44930;52.878;6.168;2022-08-03T04:52:44;17.90;99.90
59148;DHT22;44930;52.878;6.168;2022-08-03T04:55:10;18.50;99.90
59148;DHT22;44930;52.878;6.168;2022-08-03T04:57:36;18.00;99.90
59148;DHT22;44930;52.878;6.168;2022-08-03T05:00:02;18.50;99.90
59148;DHT22;44930;52.878;6.168;2022-08-03T05:02:29;19.60;99.90
59148;DHT22;44930;52.878;6.168;2022-08-03T05:04:55;18.10;99.90
59148;DHT22;44930;52.878;6.168;2022-08-03T05:07:21;18.70;99.90
59148;DHT22;44930;52.878;6.168;2022-08-03T05:09:46;18.50;99.90
59148;DHT22;44930;52.878;6.168;2022-08-03T05:12:12;18.60;99.90
59148;DHT22;44930;52.878;6.168;2022-08-03T05:14:38;18.20;99.90
59148;DHT22;44930;52.878;6.168;2022-08-03T05:17:04;18.30;99.90
59148;DHT22;44930;52.878;6.168;2022-08-03T05:19:30;18.40;99.90
59148;DHT22;44930;52.878;6.168;2022-08-03T05:21:55;18.90;99.90
59148;DHT22;44930;52.878;6.168;2022-08-03T05:24:21;18.40;99.90
59148;DHT22;44930;52.878;6.168;2022-08-03T05:26:47;18.80;99.90
59148;DHT22;44930;52.878;6.168;2022-08-03T05:29:12;18.60;99.90
59148;DHT22;44930;52.878;6.168;2022-08-03T05:31:38;18.50;99.90
59148;DHT22;44930;52.878;6.168;2022-08-03T05:34:03;18.60;99.90
59148;DHT22;44930;52.878;6.168;2022-08-03T05:36:29;18.70;99.90
59148;DHT22;44930;52.878;6.168;2022-08-03T05:38:54;19.00;99.90
59148;DHT22;44930;52.878;6.168;2022-08-03T05:41:20;18.50;99.90
59148;DHT22;44930;52.878;6.168;2022-08-03T05:43:45;18.80;99.90
59148;DHT22;44930;52.878;6.168;2022-08-03T05:46:11;18.90;99.90
59148;DHT22;44930;52.878;6.168;2022-08-03T05:48:37;19.00;99.90
59148;DHT22;44930;52.878;6.168;2022-08-03T05:51:03;18.70;99.90
59148;DHT22;44930;52.878;6.168;2022-08-03T05:53:34;18.90;99.90
59148;DHT22;44930;52.878;6.168;2022-08-03T05:55:59;19.00;99.90
59148;DHT22;44930;52.878;6.168;2022-08-03T05:58:25;19.10;99.90
59148;DHT22;44930;52.878;6.168;2022-08-03T06:00:50;19.00;99.90
59148;DHT22;44930;52.878;6.168;2022-08-03T06:03:16;19.20;99.90
59148;DHT22;44930;52.878;6.168;2022-08-03T06:05:42;19.20;99.90
59148;DHT22;44930;52.878;6.168;2022-08-03T06:08:07;19.40;99.90
59148;DHT22;44930;52.878;6.168;2022-08-03T06:10:33;19.70;99.90
59148;DHT22;44930;52.878;6.168;2022-08-03T06:12:59;20.00;99.90
59148;DHT22;44930;52.878;6.168;2022-08-03T06:15:24;19.50;99.90
59148;DHT22;44930;52.878;6.168;2022-08-03T06:17:50;19.60;99.90
59148;DHT22;44930;52.878;6.168;2022-08-03T06:20:18;19.60;99.90
59148;DHT22;44930;52.878;6.168;2022-08-03T06:22:44;19.00;99.90
59148;DHT22;44930;52.878;6.168;2022-08-03T06:25:10;19.80;99.90
59148;DHT22;44930;52.878;6.168;2022-08-03T06:27:36;19.60;99.90
59148;DHT22;44930;52.878;6.168;2022-08-03T06:30:05;19.40;99.90
59148;DHT22;44930;52.878;6.168;2022-08-03T06:32:31;19.60;99.90
59148;DHT22;44930;52.878;6.168;2022-08-03T06:34:58;19.90;99.90
59148;DHT22;44930;52.878;6.168;2022-08-03T06:37:24;19.80;99.90
59148;DHT22;44930;52.878;6.168;2022-08-03T06:39:51;19.50;99.90
59148;DHT22;44930;52.878;6.168;2022-08-03T06:42:17;19.60;99.90
59148;DHT22;44930;52.878;6.168;2022-08-03T06:44:43;19.30;99.90
59148;DHT22;44930;52.878;6.168;2022-08-03T06:47:08;19.90;99.90
59148;DHT22;44930;52.878;6.168;2022-08-03T06:49:34;19.60;99.90
59148;DHT22;44930;52.878;6.168;2022-08-03T06:51:59;19.80;99.90
59148;DHT22;44930;52.878;6.168;2022-08-03T06:54:25;19.80;99.90
59148;DHT22;44930;52.878;6.168;2022-08-03T06:56:51;19.70;99.90
59148;DHT22;44930;52.878;6.168;2022-08-03T06:59:17;20.10;99.90
59148;DHT22;44930;52.878;6.168;2022-08-03T07:01:42;19.60;99.90
59148;DHT22;44930;52.878;6.168;2022-08-03T07:04:08;19.40;99.90
59148;DHT22;44930;52.878;6.168;2022-08-03T07:06:33;20.00;99.90
59148;DHT22;44930;52.878;6.168;2022-08-03T07:08:59;20.30;99.90
59148;DHT22;44930;52.878;6.168;2022-08-03T07:11:25;19.90;99.90
59148;DHT22;44930;52.878;6.168;2022-08-03T07:13:51;19.80;99.90
59148;DHT22;44930;52.878;6.168;2022-08-03T07:16:16;20.30;99.90
59148;DHT22;44930;52.878;6.168;2022-08-03T07:18:42;19.90;99.90
59148;DHT22;44930;52.878;6.168;2022-08-03T07:21:07;20.10;99.90
59148;DHT22;44930;52.878;6.168;2022-08-03T07:23:35;20.20;99.90
59148;DHT22;44930;52.878;6.168;2022-08-03T07:26:00;20.20;99.90
59148;DHT22;44930;52.878;6.168;2022-08-03T07:28:26;20.20;99.90
59148;DHT22;44930;52.878;6.168;2022-08-03T07:30:52;20.50;99.90
59148;DHT22;44930;52.878;6.168;2022-08-03T07:33:18;20.60;99.90
59148;DHT22;44930;52.878;6.168;2022-08-03T07:35:43;20.60;99.90
59148;DHT22;44930;52.878;6.168;2022-08-03T07:38:09;22.20;99.90
59148;DHT22;44930;52.878;6.168;2022-08-03T07:40:34;21.00;99.90
59148;DHT22;44930;52.878;6.168;2022-08-03T07:43:00;20.40;99.90
59148;DHT22;44930;52.878;6.168;2022-08-03T07:45:31;20.40;99.90
59148;DHT22;44930;52.878;6.168;2022-08-03T07:47:56;20.40;99.90
59148;DHT22;44930;52.878;6.168;2022-08-03T07:50:22;20.90;99.90
59148;DHT22;44930;52.878;6.168;2022-08-03T07:52:49;20.30;99.90
59148;DHT22;44930;52.878;6.168;2022-08-03T07:55:21;20.70;99.90
59148;DHT22;44930;52.878;6.168;2022-08-03T07:58:01;20.60;99.90
59148;DHT22;44930;52.878;6.168;2022-08-03T08:00:27;20.70;99.90
59148;DHT22;44930;52.878;6.168;2022-08-03T08:02:53;20.80;99.90
59148;DHT22;44930;52.878;6.168;2022-08-03T08:05:18;21.20;99.90
59148;DHT22;44930;52.878;6.168;2022-08-03T08:07:44;21.10;99.90
59148;DHT22;44930;52.878;6.168;2022-08-03T08:10:10;20.90;99.90
59148;DHT22;44930;52.878;6.168;2022-08-03T08:12:37;20.80;99.90
59148;DHT22;44930;52.878;6.168;2022-08-03T08:15:03;21.50;99.90
59148;DHT22;44930;52.878;6.168;2022-08-03T08:17:29;21.60;99.90
59148;DHT22;44930;52.878;6.168;2022-08-03T08:19:55;21.10;99.90
59148;DHT22;44930;52.878;6.168;2022-08-03T08:22:20;21.20;99.90
59148;DHT22;44930;52.878;6.168;2022-08-03T08:24:46;21.60;99.90
59148;DHT22;44930;52.878;6.168;2022-08-03T08:27:14;21.80;99.90
59148;DHT22;44930;52.878;6.168;2022-08-03T08:29:39;22.10;99.90
59148;DHT22;44930;52.878;6.168;2022-08-03T08:32:05;21.70;99.90
59148;DHT22;44930;52.878;6.168;2022-08-03T08:34:30;22.10;99.90
59148;DHT22;44930;52.878;6.168;2022-08-03T08:36:56;22.60;99.90
59148;DHT22;44930;52.878;6.168;2022-08-03T08:39:21;22.60;99.90
59148;DHT22;44930;52.878;6.168;2022-08-03T08:41:50;21.60;99.90
59148;DHT22;44930;52.878;6.168;2022-08-03T08:44:16;22.20;99.90
59148;DHT22;44930;52.878;6.168;2022-08-03T08:46:41;22.60;99.90
59148;DHT22;44930;52.878;6.168;2022-08-03T08:49:08;22.30;99.90
59148;DHT22;44930;52.878;6.168;2022-08-03T08:51:34;22.30;99.90
59148;DHT22;44930;52.878;6.168;2022-08-03T08:54:06;24.00;99.90
59148;DHT22;44930;52.878;6.168;2022-08-03T08:56:32;22.60;99.90
59148;DHT22;44930;52.878;6.168;2022-08-03T08:59:00;22.20;99.90
59148;DHT22;44930;52.878;6.168;2022-08-03T09:01:26;22.80;99.90
59148;DHT22;44930;52.878;6.168;2022-08-03T09:03:52;23.10;99.90
59148;DHT22;44930;52.878;6.168;2022-08-03T09:06:19;23.00;99.90
59148;DHT22;44930;52.878;6.168;2022-08-03T09:08:45;22.80;99.90
59148;DHT22;44930;52.878;6.168;2022-08-03T09:11:11;24.70;99.90
59148;DHT22;44930;52.878;6.168;2022-08-03T09:13:37;22.90;99.90
59148;DHT22;44930;52.878;6.168;2022-08-03T09:16:17;23.20;99.90
59148;DHT22;44930;52.878;6.168;2022-08-03T09:18:46;23.20;99.90
59148;DHT22;44930;52.878;6.168;2022-08-03T09:21:21;23.10;99.90
59148;DHT22;44930;52.878;6.168;2022-08-03T09:23:54;23.30;99.90
59148;DHT22;44930;52.878;6.168;2022-08-03T09:26:25;23.40;99.90
59148;DHT22;44930;52.878;6.168;2022-08-03T09:29:06;23.40;99.90
59148;DHT22;44930;52.878;6.168;2022-08-03T09:34:07;23.60;99.90
59148;DHT22;44930;52.878;6.168;2022-08-03T09:36:48;23.90;99.90
59148;DHT22;44930;52.878;6.168;2022-08-03T09:39:22;23.40;99.90
59148;DHT22;44930;52.878;6.168;2022-08-03T09:42:04;25.30;99.90
59148;DHT22;44930;52.878;6.168;2022-08-03T09:44:34;24.00;99.90
59148;DHT22;44930;52.878;6.168;2022-08-03T09:47:01;24.20;99.90
59148;DHT22;44930;52.878;6.168;2022-08-03T09:49:27;24.00;99.90
59148;DHT22;44930;52.878;6.168;2022-08-03T09:51:53;24.60;99.90
59148;DHT22;44930;52.878;6.168;2022-08-03T09:54:26;24.70;99.90
59148;DHT22;44930;52.878;6.168;2022-08-03T09:56:52;24.70;99.90
59148;DHT22;44930;52.878;6.168;2022-08-03T09:59:27;24.20;99.90
59148;DHT22;44930;52.878;6.168;2022-08-03T10:01:54;24.80;99.90
59148;DHT22;44930;52.878;6.168;2022-08-03T10:04:20;24.60;99.90
59148;DHT22;44930;52.878;6.168;2022-08-03T10:07:08;24.40;99.90
59148;DHT22;44930;52.878;6.168;2022-08-03T10:09:34;25.00;99.90
59148;DHT22;44930;52.878;6.168;2022-08-03T10:12:27;24.90;99.90
59148;DHT22;44930;52.878;6.168;2022-08-03T10:14:53;25.30;99.90
59148;DHT22;44930;52.878;6.168;2022-08-03T10:17:20;25.20;99.90
59148;DHT22;44930;52.878;6.168;2022-08-03T10:19:47;25.00;99.90
59148;DHT22;44930;52.878;6.168;2022-08-03T10:22:19;25.30;99.90
59148;DHT22;44930;52.878;6.168;2022-08-03T10:24:52;25.50;99.90
59148;DHT22;44930;52.878;6.168;2022-08-03T10:27:21;25.60;99.90
59148;DHT22;44930;52.878;6.168;2022-08-03T10:29:51;25.70;99.90
59148;DHT22;44930;52.878;6.168;2022-08-03T10:32:24;25.70;99.90
59148;DHT22;44930;52.878;6.168;2022-08-03T10:34:54;25.80;99.90
59148;DHT22;44930;52.878;6.168;2022-08-03T10:37:23;26.00;99.90
59148;DHT22;44930;52.878;6.168;2022-08-03T10:39:52;26.20;99.90
59148;DHT22;44930;52.878;6.168;2022-08-03T10:42:25;26.20;99.90
59148;DHT22;44930;52.878;6.168;2022-08-03T10:45:05;25.90;99.90
59148;DHT22;44930;52.878;6.168;2022-08-03T10:47:32;25.80;99.90
59148;DHT22;44930;52.878;6.168;2022-08-03T10:49:59;26.30;99.90
59148;DHT22;44930;52.878;6.168;2022-08-03T10:52:25;26.20;99.90
59148;DHT22;44930;52.878;6.168;2022-08-03T10:54:51;25.90;99.90
59148;DHT22;44930;52.878;6.168;2022-08-03T10:57:46;26.40;99.90
59148;DHT22;44930;52.878;6.168;2022-08-03T11:00:17;25.90;99.90
59148;DHT22;44930;52.878;6.168;2022-08-03T11:03:11;27.40;99.90
59148;DHT22;44930;52.878;6.168;2022-08-03T11:10:47;27.60;99.90
59148;DHT22;44930;52.878;6.168;2022-08-03T11:13:19;26.00;99.90
59148;DHT22;44930;52.878;6.168;2022-08-03T11:15:47;26.90;99.90
59148;DHT22;44930;52.878;6.168;2022-08-03T11:18:14;26.50;99.90
59148;DHT22;44930;52.878;6.168;2022-08-03T11:20:50;26.90;99.90
59148;DHT22;44930;52.878;6.168;2022-08-03T11:23:39;26.40;99.90
59148;DHT22;44930;52.878;6.168;2022-08-03T11:26:17;28.30;99.90
59148;DHT22;44930;52.878;6.168;2022-08-03T11:28:46;26.90;99.90
59148;DHT22;44930;52.878;6.168;2022-08-03T11:34:07;27.20;99.90
59148;DHT22;44930;52.878;6.168;2022-08-03T11:39:39;27.40;99.90
59148;DHT22;44930;52.878;6.168;2022-08-03T11:44:53;27.60;99.90
59148;DHT22;44930;52.878;6.168;2022-08-03T11:47:20;27.70;99.90
59148;DHT22;44930;52.878;6.168;2022-08-03T11:49:47;27.80;99.90
59148;DHT22;44930;52.878;6.168;2022-08-03T11:52:13;28.10;99.90
59148;DHT22;44930;52.878;6.168;2022-08-03T11:54:40;27.90;99.90
59148;DHT22;44930;52.878;6.168;2022-08-03T11:57:05;28.10;99.90
59148;DHT22;44930;52.878;6.168;2022-08-03T11:59:32;27.90;99.90
59148;DHT22;44930;52.878;6.168;2022-08-03T12:02:11;27.90;99.90
59148;DHT22;44930;52.878;6.168;2022-08-03T12:04:57;27.70;99.90
59148;DHT22;44930;52.878;6.168;2022-08-03T12:07:25;28.00;99.90
59148;DHT22;44930;52.878;6.168;2022-08-03T12:10:14;28.20;99.90
59148;DHT22;44930;52.878;6.168;2022-08-03T12:12:40;28.60;99.90
59148;DHT22;44930;52.878;6.168;2022-08-03T12:15:07;28.70;99.90
59148;DHT22;44930;52.878;6.168;2022-08-03T12:17:38;28.50;99.90
59148;DHT22;44930;52.878;6.168;2022-08-03T12:20:07;28.90;99.90
59148;DHT22;44930;52.878;6.168;2022-08-03T12:22:33;28.60;99.90
59148;DHT22;44930;52.878;6.168;2022-08-03T12:25:00;28.60;99.90
59148;DHT22;44930;52.878;6.168;2022-08-03T12:27:26;28.70;99.90
59148;DHT22;44930;52.878;6.168;2022-08-03T12:29:56;29.20;99.90
59148;DHT22;44930;52.878;6.168;2022-08-03T12:32:23;29.30;99.90
59148;DHT22;44930;52.878;6.168;2022-08-03T12:34:50;28.90;99.90
59148;DHT22;44930;52.878;6.168;2022-08-03T12:37:20;28.70;99.90
59148;DHT22;44930;52.878;6.168;2022-08-03T12:39:50;28.80;99.90
59148;DHT22;44930;52.878;6.168;2022-08-03T12:42:17;29.20;99.90
59148;DHT22;44930;52.878;6.168;2022-08-03T12:44:42;29.00;99.90
59148;DHT22;44930;52.878;6.168;2022-08-03T12:47:10;28.50;99.90
59148;DHT22;44930;52.878;6.168;2022-08-03T12:49:47;28.80;99.90
59148;DHT22;44930;52.878;6.168;2022-08-03T12:52:13;28.70;99.90
59148;DHT22;44930;52.878;6.168;2022-08-03T12:54:38;29.30;99.90
59148;DHT22;44930;52.878;6.168;2022-08-03T12:57:05;29.30;99.90
59148;DHT22;44930;52.878;6.168;2022-08-03T12:59:39;29.20;99.90
59148;DHT22;44930;52.878;6.168;2022-08-03T13:02:17;29.30;99.90
59148;DHT22;44930;52.878;6.168;2022-08-03T13:04:44;29.20;99.90
59148;DHT22;44930;52.878;6.168;2022-08-03T13:07:10;29.10;99.90
59148;DHT22;44930;52.878;6.168;2022-08-03T13:12:11;29.30;99.90
59148;DHT22;44930;52.878;6.168;2022-08-03T13:14:37;28.60;99.90
59148;DHT22;44930;52.878;6.168;2022-08-03T13:17:04;29.60;99.90
59148;DHT22;44930;52.878;6.168;2022-08-03T13:19:31;29.20;99.90
59148;DHT22;44930;52.878;6.168;2022-08-03T13:21:57;29.10;99.90
59148;DHT22;44930;52.878;6.168;2022-08-03T13:24:23;29.30;99.90
59148;DHT22;44930;52.878;6.168;2022-08-03T13:26:48;29.10;99.90
59148;DHT22;44930;52.878;6.168;2022-08-03T13:29:15;29.20;99.90
59148;DHT22;44930;52.878;6.168;2022-08-03T13:31:41;29.80;99.90
59148;DHT22;44930;52.878;6.168;2022-08-03T13:34:06;29.60;99.90
59148;DHT22;44930;52.878;6.168;2022-08-03T13:36:32;28.80;99.90
59148;DHT22;44930;52.878;6.168;2022-08-03T13:38:57;28.60;99.90
59148;DHT22;44930;52.878;6.168;2022-08-03T13:41:23;29.10;99.90
59148;DHT22;44930;52.878;6.168;2022-08-03T13:43:48;28.90;99.90
59148;DHT22;44930;52.878;6.168;2022-08-03T13:46:14;29.40;99.90
59148;DHT22;44930;52.878;6.168;2022-08-03T13:48:39;28.90;99.90
59148;DHT22;44930;52.878;6.168;2022-08-03T13:51:05;29.10;99.90
59148;DHT22;44930;52.878;6.168;2022-08-03T13:53:31;29.10;99.90
59148;DHT22;44930;52.878;6.168;2022-08-03T13:55:56;28.90;99.90
59148;DHT22;44930;52.878;6.168;2022-08-03T13:58:22;29.20;99.90
59148;DHT22;44930;52.878;6.168;2022-08-03T14:00:47;29.40;99.90
59148;DHT22;44930;52.878;6.168;2022-08-03T14:03:13;28.80;99.90
59148;DHT22;44930;52.878;6.168;2022-08-03T14:05:39;29.70;99.90
59148;DHT22;44930;52.878;6.168;2022-08-03T14:08:05;29.00;99.90
59148;DHT22;44930;52.878;6.168;2022-08-03T14:10:36;28.80;99.90
59148;DHT22;44930;52.878;6.168;2022-08-03T14:13:03;29.40;99.90
59148;DHT22;44930;52.878;6.168;2022-08-03T14:15:29;29.50;99.90
59148;DHT22;44930;52.878;6.168;2022-08-03T14:17:55;29.30;99.90
59148;DHT22;44930;52.878;6.168;2022-08-03T14:20:21;29.50;99.90
59148;DHT22;44930;52.878;6.168;2022-08-03T14:22:46;28.80;99.90
59148;DHT22;44930;52.878;6.168;2022-08-03T14:25:12;28.60;99.90
59148;DHT22;44930;52.878;6.168;2022-08-03T14:27:37;29.30;99.90
59148;DHT22;44930;52.878;6.168;2022-08-03T14:30:03;29.20;99.90
59148;DHT22;44930;52.878;6.168;2022-08-03T14:32:29;28.80;99.90
59148;DHT22;44930;52.878;6.168;2022-08-03T14:34:54;29.00;99.90
59148;DHT22;44930;52.878;6.168;2022-08-03T14:37:20;29.70;99.90
59148;DHT22;44930;52.878;6.168;2022-08-03T14:39:46;29.70;99.90
59148;DHT22;44930;52.878;6.168;2022-08-03T14:42:12;29.40;99.90
59148;DHT22;44930;52.878;6.168;2022-08-03T14:44:40;29.50;99.90
59148;DHT22;44930;52.878;6.168;2022-08-03T14:47:05;30.80;99.90
59148;DHT22;44930;52.878;6.168;2022-08-03T14:49:31;29.40;99.90
59148;DHT22;44930;52.878;6.168;2022-08-03T14:51:56;29.50;99.90
59148;DHT22;44930;52.878;6.168;2022-08-03T14:54:22;30.00;99.90
59148;DHT22;44930;52.878;6.168;2022-08-03T14:56:47;29.50;99.90
59148;DHT22;44930;52.878;6.168;2022-08-03T14:59:13;29.20;99.90
59148;DHT22;44930;52.878;6.168;2022-08-03T15:01:38;29.80;99.90
59148;DHT22;44930;52.878;6.168;2022-08-03T15:04:04;29.60;99.90
59148;DHT22;44930;52.878;6.168;2022-08-03T15:06:29;29.60;99.90
59148;DHT22;44930;52.878;6.168;2022-08-03T15:08:55;31.20;99.90
59148;DHT22;44930;52.878;6.168;2022-08-03T15:11:20;30.20;99.90
59148;DHT22;44930;52.878;6.168;2022-08-03T15:13:46;30.10;99.80
59148;DHT22;44930;52.878;6.168;2022-08-03T15:16:11;30.00;98.60
59148;DHT22;44930;52.878;6.168;2022-08-03T15:18:37;30.60;98.60
59148;DHT22;44930;52.878;6.168;2022-08-03T15:21:02;30.60;99.00
59148;DHT22;44930;52.878;6.168;2022-08-03T15:23:28;30.60;97.80
59148;DHT22;44930;52.878;6.168;2022-08-03T15:25:54;30.50;98.10
59148;DHT22;44930;52.878;6.168;2022-08-03T15:28:19;31.10;97.60
59148;DHT22;44930;52.878;6.168;2022-08-03T15:30:45;31.20;97.60
59148;DHT22;44930;52.878;6.168;2022-08-03T15:33:10;31.50;98.20
59148;DHT22;44930;52.878;6.168;2022-08-03T15:35:36;31.50;97.20
59148;DHT22;44930;52.878;6.168;2022-08-03T15:38:02;31.90;96.00
59148;DHT22;44930;52.878;6.168;2022-08-03T15:40:28;31.60;96.80
59148;DHT22;44930;52.878;6.168;2022-08-03T15:42:53;33.30;96.70
59148;DHT22;44930;52.878;6.168;2022-08-03T15:45:19;31.90;96.40
59148;DHT22;44930;52.878;6.168;2022-08-03T15:47:44;31.60;95.70
59148;DHT22;44930;52.878;6.168;2022-08-03T15:50:10;31.70;96.00
59148;DHT22;44930;52.878;6.168;2022-08-03T15:52:36;31.40;95.40
59148;DHT22;44930;52.878;6.168;2022-08-03T15:55:03;31.50;96.00
59148;DHT22;44930;52.878;6.168;2022-08-03T15:57:28;31.10;94.90
59148;DHT22;44930;52.878;6.168;2022-08-03T15:59:54;31.80;95.80
59148;DHT22;44930;52.878;6.168;2022-08-03T16:02:19;30.90;96.20
59148;DHT22;44930;52.878;6.168;2022-08-03T16:04:45;31.70;96.60